Time;durP1;ratioP1;P1;durP2;ratioP2;P2;SDS_P1;SDS_P2;PMS_P1;PMS_P2;Temp;Humidity;BMP_temperature;BMP_pressure;BME280_temperature;BME280_humidity;BME280_pressure;Samples;Min_cycle;Max_cycle;Signal;HPM_P1;HPM_P2
2021/06/27 00:00:18;;;;;;;28.35;17.58;;;16.20;99.90;;;;;;5034772;28;20034;-88
2021/06/27 00:02:45;;;;;;;27.33;16.73;;;16.20;99.90;;;;;;5033834;28;20038;-88
2021/06/27 00:05:15;;;;;;;27.33;17.13;;;16.20;99.90;;;;;;5034163;28;20092;-87
2021/06/27 00:07:42;;;;;;;26.00;17.10;;;16.10;99.90;;;;;;5050997;28;20403;-87
2021/06/27 00:10:13;;;;;;;26.73;17.80;;;16.10;99.90;;;;;;5017809;28;20092;-87
2021/06/27 00:12:41;;;;;;;27.83;17.02;;;16.00;99.90;;;;;;5033195;28;20034;-87
2021/06/27 00:15:23;;;;;;;31.00;18.10;;;16.00;99.90;;;;;;5017642;28;20479;-88
2021/06/27 00:17:51;;;;;;;27.48;16.42;;;16.00;99.90;;;;;;5033609;28;20442;-88
2021/06/27 00:20:24;;;;;;;29.85;18.52;;;16.00;99.90;;;;;;5017704;28;20044;-88
2021/06/27 00:22:52;;;;;;;26.95;17.25;;;16.00;99.90;;;;;;5032265;28;20096;-88
2021/06/27 00:25:22;;;;;;;29.88;18.15;;;16.00;99.90;;;;;;5033534;28;20037;-87
2021/06/27 00:27:50;;;;;;;25.35;17.02;;;16.00;99.90;;;;;;5033438;28;20033;-88
2021/06/27 00:30:19;;;;;;;28.80;17.48;;;15.90;99.90;;;;;;5017535;28;20479;-88
2021/06/27 00:32:46;;;;;;;29.95;17.92;;;15.90;99.90;;;;;;5016648;28;20046;-88
2021/06/27 00:35:15;;;;;;;28.75;17.67;;;15.90;99.90;;;;;;5033753;28;20046;-87
2021/06/27 00:37:42;;;;;;;27.90;17.88;;;15.90;99.90;;;;;;5032909;28;20054;-87
2021/06/27 00:40:12;;;;;;;29.00;18.45;;;15.80;99.90;;;;;;5017182;28;20049;-87
2021/06/27 00:42:39;;;;;;;27.88;16.73;;;15.80;99.90;;;;;;5016904;28;20037;-88
2021/06/27 00:45:09;;;;;;;29.55;17.55;;;15.80;99.90;;;;;;5033293;28;20026;-89
2021/06/27 00:47:42;;;;;;;31.02;18.80;;;15.80;99.90;;;;;;5016951;28;20066;-88
2021/06/27 00:50:13;;;;;;;26.77;16.95;;;15.80;99.90;;;;;;5017740;28;20034;-88
2021/06/27 00:52:40;;;;;;;30.10;16.83;;;15.80;99.90;;;;;;5050061;28;20117;-88
2021/06/27 00:55:08;;;;;;;30.95;19.00;;;15.80;99.90;;;;;;5016620;28;20121;-89
2021/06/27 00:57:38;;;;;;;29.30;17.20;;;15.70;99.90;;;;;;5016978;28;20049;-89
2021/06/27 01:00:09;;;;;;;24.55;17.10;;;15.70;99.90;;;;;;5017389;28;20061;-88
2021/06/27 01:02:36;;;;;;;28.80;18.65;;;15.70;99.90;;;;;;5017149;28;20088;-87
2021/06/27 01:05:06;;;;;;;28.10;18.50;;;15.70;99.90;;;;;;5032956;28;20482;-88
2021/06/27 01:07:33;;;;;;;32.60;18.38;;;15.70;99.90;;;;;;5033156;28;20068;-88
2021/06/27 01:10:01;;;;;;;30.55;17.98;;;15.70;99.90;;;;;;5000445;28;20038;-88
2021/06/27 01:12:27;;;;;;;30.35;18.45;;;15.70;99.90;;;;;;5032797;28;20038;-88
2021/06/27 01:14:55;;;;;;;28.70;17.05;;;15.70;99.90;;;;;;5000195;28;20371;-88
2021/06/27 01:17:23;;;;;;;33.58;18.13;;;15.70;99.90;;;;;;5032586;28;20037;-87
2021/06/27 01:19:49;;;;;;;27.60;17.73;;;15.70;99.90;;;;;;5016276;28;20030;-89
2021/06/27 01:22:16;;;;;;;27.98;16.77;;;15.70;99.90;;;;;;5000408;28;20045;-89
2021/06/27 01:24:43;;;;;;;31.73;17.88;;;15.70;99.90;;;;;;5032513;28;20030;-88
2021/06/27 01:27:10;;;;;;;26.20;17.38;;;15.60;99.90;;;;;;5000489;28;20053;-87
2021/06/27 01:29:38;;;;;;;26.08;17.25;;;15.70;99.90;;;;;;5016216;28;20077;-88
2021/06/27 01:32:10;;;;;;;31.85;17.98;;;15.60;99.90;;;;;;5001056;28;20045;-88
2021/06/27 01:34:43;;;;;;;30.35;17.50;;;15.60;99.90;;;;;;5000780;28;20080;-88
2021/06/27 01:37:10;;;;;;;29.90;18.15;;;15.60;99.90;;;;;;5016392;28;20410;-87
2021/06/27 01:39:39;;;;;;;32.70;18.10;;;15.50;99.90;;;;;;5032165;28;20077;-87
2021/06/27 01:42:06;;;;;;;31.13;18.13;;;15.60;99.90;;;;;;5031853;28;20037;-88
2021/06/27 01:44:33;;;;;;;35.40;18.98;;;15.50;99.90;;;;;;5000418;28;20049;-87
2021/06/27 01:47:02;;;;;;;29.27;17.65;;;15.50;99.90;;;;;;5000264;28;20116;-88
2021/06/27 01:49:29;;;;;;;32.95;18.52;;;15.50;99.90;;;;;;5015877;28;20112;-88
2021/06/27 01:51:56;;;;;;;30.92;18.30;;;15.50;99.90;;;;;;5031671;28;20068;-88
2021/06/27 01:54:23;;;;;;;30.95;18.52;;;15.50;99.90;;;;;;5016013;28;20088;-88
2021/06/27 01:56:50;;;;;;;30.27;18.30;;;15.50;99.90;;;;;;4999485;28;20037;-88
2021/06/27 01:59:18;;;;;;;30.45;19.00;;;15.50;99.90;;;;;;5015923;28;20044;-88
2021/06/27 02:01:45;;;;;;;32.00;19.08;;;15.50;99.90;;;;;;5031496;28;20117;-89
2021/06/27 02:04:13;;;;;;;32.28;19.73;;;15.50;99.90;;;;;;5016415;28;20466;-88
2021/06/27 02:06:42;;;;;;;30.52;19.27;;;15.40;99.90;;;;;;4999839;28;20074;-88
2021/06/27 02:09:12;;;;;;;27.38;17.13;;;15.50;99.90;;;;;;5031990;28;20033;-88
2021/06/27 02:11:39;;;;;;;34.22;19.17;;;15.40;99.90;;;;;;5049231;28;20112;-88
2021/06/27 02:14:07;;;;;;;35.55;18.17;;;15.40;99.90;;;;;;5015168;28;20394;-87
2021/06/27 02:16:35;;;;;;;31.13;19.15;;;15.40;99.90;;;;;;5031834;28;20042;-88
2021/06/27 02:19:03;;;;;;;30.20;18.45;;;15.40;99.90;;;;;;5015739;28;20045;-87
2021/06/27 02:21:35;;;;;;;33.20;19.30;;;15.40;99.90;;;;;;5031666;28;20395;-88
2021/06/27 02:24:04;;;;;;;29.45;18.38;;;15.30;99.90;;;;;;5047465;28;20045;-87
2021/06/27 02:26:33;;;;;;;34.45;19.88;;;15.40;99.90;;;;;;5031314;28;20046;-88
2021/06/27 02:29:02;;;;;;;33.78;18.52;;;15.30;99.90;;;;;;5031031;28;20121;-88
2021/06/27 02:31:31;;;;;;;32.92;19.10;;;15.30;99.90;;;;;;5031688;28;20044;-88
2021/06/27 02:34:00;;;;;;;31.40;19.00;;;15.30;99.90;;;;;;5047472;28;20030;-88
2021/06/27 02:36:27;;;;;;;32.10;20.45;;;15.30;99.90;;;;;;5015863;28;20143;-87
2021/06/27 02:38:55;;;;;;;39.47;19.88;;;15.30;99.90;;;;;;5015489;28;20387;-88
2021/06/27 02:41:23;;;;;;;30.17;18.95;;;15.30;99.90;;;;;;5031441;28;20049;-89
2021/06/27 02:43:49;;;;;;;33.88;20.02;;;15.30;99.90;;;;;;4999380;28;20474;-89
2021/06/27 02:46:17;;;;;;;36.75;20.25;;;15.30;99.90;;;;;;4999198;28;20061;-89
2021/06/27 02:49:04;;;;;;;34.53;19.92;;;15.30;99.90;;;;;;5007124;28;20052;-89
2021/06/27 02:51:30;;;;;;;33.92;19.90;;;15.20;99.90;;;;;;5048646;28;20120;-89
2021/06/27 02:53:57;;;;;;;39.45;19.80;;;15.20;99.90;;;;;;4998485;28;20121;-88
2021/06/27 02:56:27;;;;;;;38.42;19.98;;;15.20;99.90;;;;;;5031235;28;20045;-89
2021/06/27 02:58:54;;;;;;;34.70;19.75;;;15.20;99.90;;;;;;5014475;28;20121;-88
2021/06/27 03:01:22;;;;;;;37.53;20.00;;;15.20;99.90;;;;;;5048577;28;20046;-89
2021/06/27 03:03:52;;;;;;;36.47;19.27;;;15.20;99.90;;;;;;4998597;28;20466;-88
2021/06/27 03:06:20;;;;;;;33.88;19.50;;;15.20;99.90;;;;;;5015552;28;20038;-88
2021/06/27 03:08:49;;;;;;;36.25;19.02;;;15.10;99.90;;;;;;5030807;28;20037;-87
2021/06/27 03:11:17;;;;;;;34.38;19.85;;;15.10;99.90;;;;;;4998764;28;20482;-88
2021/06/27 03:13:44;;;;;;;33.88;18.83;;;15.20;99.90;;;;;;4999718;28;20375;-89
2021/06/27 03:16:12;;;;;;;33.95;18.50;;;15.20;99.90;;;;;;4998736;28;20116;-89
2021/06/27 03:18:38;;;;;;;29.55;18.20;;;15.20;99.90;;;;;;5030831;28;20041;-88
2021/06/27 03:21:06;;;;;;;32.63;18.88;;;15.20;99.90;;;;;;5014819;28;20125;-88
2021/06/27 03:23:34;;;;;;;34.30;18.50;;;15.20;99.90;;;;;;5015076;28;20042;-89
2021/06/27 03:26:01;;;;;;;31.60;18.35;;;15.20;99.90;;;;;;5031045;28;20439;-89
2021/06/27 03:28:33;;;;;;;35.17;18.77;;;15.10;99.90;;;;;;5015107;28;20122;-89
2021/06/27 03:31:00;;;;;;;34.17;18.48;;;15.20;99.90;;;;;;5015155;28;20034;-90
2021/06/27 03:33:28;;;;;;;33.80;17.88;;;15.10;99.90;;;;;;5048307;28;20049;-90
2021/06/27 03:35:54;;;;;;;32.90;18.63;;;15.20;99.90;;;;;;5030670;28;20093;-89
2021/06/27 03:40:49;;;;;;;32.25;19.15;;;15.10;99.90;;;;;;5011908;28;20046;-89
2021/06/27 03:43:17;;;;;;;30.58;17.92;;;15.10;99.90;;;;;;5011423;28;20038;-90
2021/06/27 03:45:44;;;;;;;33.55;18.55;;;15.20;99.90;;;;;;5011443;28;20034;-89
2021/06/27 03:48:11;;;;;;;30.98;18.75;;;15.20;99.90;;;;;;4979378;28;20045;-89
2021/06/27 03:50:38;;;;;;;32.83;18.45;;;15.20;99.90;;;;;;5011892;28;20051;-90
2021/06/27 03:53:05;;;;;;;32.13;18.30;;;15.30;99.90;;;;;;4995200;28;20042;-90
2021/06/27 03:55:33;;;;;;;31.38;18.23;;;15.20;99.90;;;;;;5011483;28;20411;-90
2021/06/27 03:57:59;;;;;;;33.35;18.13;;;15.20;99.90;;;;;;4981026;28;20039;-90
2021/06/27 04:00:27;;;;;;;31.60;17.25;;;15.20;99.90;;;;;;4998585;28;20039;-90
2021/06/27 04:02:54;;;;;;;28.00;17.50;;;15.20;99.90;;;;;;4998433;28;20053;-87
2021/06/27 04:05:22;;;;;;;35.83;19.27;;;15.20;99.90;;;;;;4999047;28;20034;-90
2021/06/27 04:07:48;;;;;;;29.42;17.58;;;15.20;99.90;;;;;;4998925;28;20137;-89
2021/06/27 04:10:16;;;;;;;32.58;17.52;;;15.20;99.90;;;;;;4998641;28;20125;-89
2021/06/27 04:12:43;;;;;;;28.02;17.58;;;15.20;99.90;;;;;;4998560;28;20481;-90
2021/06/27 04:15:10;;;;;;;29.33;17.40;;;15.30;99.90;;;;;;4982425;28;20061;-90
2021/06/27 04:17:38;;;;;;;28.55;16.98;;;15.30;99.90;;;;;;4998688;28;20495;-90
2021/06/27 04:20:08;;;;;;;29.95;17.75;;;15.30;99.90;;;;;;5014352;28;20069;-89
2021/06/27 04:22:35;;;;;;;33.22;18.52;;;15.40;99.90;;;;;;4998437;28;20065;-90
2021/06/27 04:25:04;;;;;;;28.92;17.60;;;15.40;99.90;;;;;;4997839;28;20069;-89
2021/06/27 04:27:31;;;;;;;31.92;18.25;;;15.40;99.90;;;;;;5014405;28;20515;-90
2021/06/27 04:29:58;;;;;;;29.77;17.20;;;15.40;99.90;;;;;;5014018;28;20063;-88
2021/06/27 04:32:25;;;;;;;28.67;17.65;;;15.50;99.90;;;;;;5031465;28;20049;-89
2021/06/27 04:34:53;;;;;;;31.77;18.10;;;15.50;99.90;;;;;;4998497;28;20042;-89
2021/06/27 04:37:20;;;;;;;26.40;17.55;;;15.60;99.90;;;;;;4981688;28;20077;-88
2021/06/27 04:39:48;;;;;;;30.90;17.88;;;15.60;99.90;;;;;;5014314;28;20044;-89
2021/06/27 04:42:16;;;;;;;31.77;16.80;;;15.70;99.90;;;;;;4997212;28;20475;-90
2021/06/27 04:44:43;;;;;;;31.67;16.95;;;15.70;99.90;;;;;;4997702;28;20054;-90
2021/06/27 04:47:10;;;;;;;31.20;17.40;;;15.80;99.90;;;;;;5013835;28;20079;-89
2021/06/27 04:49:41;;;;;;;29.58;16.88;;;15.80;99.90;;;;;;5014148;28;20038;-90
2021/06/27 04:52:08;;;;;;;28.33;16.83;;;15.80;99.90;;;;;;5013747;28;20044;-89
2021/06/27 04:54:37;;;;;;;30.25;17.27;;;15.90;99.90;;;;;;5013821;28;20042;-89
2021/06/27 04:57:04;;;;;;;28.33;16.48;;;15.90;99.90;;;;;;5013357;28;20061;-89
2021/06/27 04:59:31;;;;;;;29.92;16.35;;;16.00;99.90;;;;;;5014076;28;20089;-90
2021/06/27 05:01:58;;;;;;;29.83;16.17;;;16.00;99.90;;;;;;4997907;28;20042;-91
2021/06/27 05:04:25;;;;;;;27.58;16.10;;;16.10;99.90;;;;;;4997479;28;20057;-90
2021/06/27 05:06:52;;;;;;;25.70;16.13;;;16.10;99.90;;;;;;4997915;28;20126;-90
2021/06/27 05:09:19;;;;;;;27.25;16.17;;;16.20;99.90;;;;;;5013271;28;20069;-92
2021/06/27 05:11:46;;;;;;;29.52;16.63;;;16.20;99.90;;;;;;4997631;28;20038;-90
2021/06/27 05:14:13;;;;;;;29.23;16.95;;;16.30;99.90;;;;;;5013200;28;20050;-90
2021/06/27 05:16:40;;;;;;;27.25;16.60;;;16.30;99.90;;;;;;4997423;28;20042;-90
2021/06/27 05:19:07;;;;;;;26.88;16.10;;;16.40;99.90;;;;;;5013091;28;20037;-89
2021/06/27 05:21:33;;;;;;;24.25;16.15;;;16.50;99.90;;;;;;5013553;28;20045;-89
2021/06/27 05:24:01;;;;;;;28.75;15.65;;;16.60;99.90;;;;;;5029864;28;20038;-89
2021/06/27 05:26:27;;;;;;;24.75;15.52;;;16.60;99.90;;;;;;4996581;28;20034;-89
2021/06/27 05:28:54;;;;;;;22.88;15.00;;;16.70;99.90;;;;;;4997552;28;20044;-89
2021/06/27 05:31:21;;;;;;;25.38;15.82;;;16.70;99.90;;;;;;4996826;28;20042;-88
2021/06/27 05:33:48;;;;;;;25.60;15.50;;;16.70;99.90;;;;;;4997528;28;20038;-90
2021/06/27 05:36:15;;;;;;;23.27;15.45;;;16.80;99.90;;;;;;4996850;28;20038;-89
2021/06/27 05:38:42;;;;;;;21.20;14.57;;;16.80;99.90;;;;;;5015596;28;20049;-89
2021/06/27 05:41:09;;;;;;;22.20;14.90;;;16.80;99.90;;;;;;5032142;28;20092;-89
2021/06/27 05:43:35;;;;;;;22.75;15.15;;;16.90;99.90;;;;;;5032892;28;20038;-90
2021/06/27 05:46:02;;;;;;;25.20;15.10;;;17.00;99.90;;;;;;5016697;28;20053;-89
2021/06/27 05:48:29;;;;;;;25.48;14.52;;;17.10;99.90;;;;;;5015957;28;20048;-89
2021/06/27 05:50:56;;;;;;;22.67;14.65;;;17.10;99.90;;;;;;5016257;28;20034;-89
2021/06/27 05:53:23;;;;;;;21.92;14.10;;;17.20;99.90;;;;;;5031988;28;20045;-89
2021/06/27 05:56:08;;;;;;;20.42;14.02;;;17.30;99.90;;;;;;5032377;28;20046;-88
2021/06/27 05:58:40;;;;;;;18.67;13.52;;;17.30;99.90;;;;;;5018677;28;20446;-88
2021/06/27 06:01:08;;;;;;;23.85;13.80;;;17.30;99.90;;;;;;5015628;28;20080;-87
2021/06/27 06:03:36;;;;;;;18.70;13.32;;;17.30;99.90;;;;;;5016177;28;20042;-88
2021/06/27 06:06:05;;;;;;;21.35;13.00;;;17.40;99.90;;;;;;5031994;28;20053;-89
2021/06/27 06:08:32;;;;;;;21.65;13.27;;;17.40;99.90;;;;;;5031342;28;20069;-88
2021/06/27 06:10:59;;;;;;;19.88;13.35;;;17.50;99.90;;;;;;5049478;28;20038;-90
2021/06/27 06:13:26;;;;;;;18.98;13.32;;;17.50;99.90;;;;;;5031478;28;20049;-90
2021/06/27 06:15:53;;;;;;;17.23;13.30;;;17.50;99.90;;;;;;5032068;28;20042;-90
2021/06/27 06:18:20;;;;;;;16.70;12.95;;;17.50;99.90;;;;;;5031688;28;20467;-90
2021/06/27 06:20:47;;;;;;;15.82;12.32;;;17.60;99.90;;;;;;5048490;28;20045;-88
2021/06/27 06:23:13;;;;;;;17.15;12.52;;;17.60;99.90;;;;;;5031246;28;20478;-88
2021/06/27 06:25:40;;;;;;;18.85;12.40;;;17.70;99.90;;;;;;5015765;28;20048;-89
2021/06/27 06:28:07;;;;;;;17.65;12.70;;;17.70;99.90;;;;;;5048775;28;20042;-87
2021/06/27 06:30:34;;;;;;;17.65;12.70;;;17.80;99.90;;;;;;4981834;28;20058;-77
2021/06/27 06:33:01;;;;;;;18.83;12.48;;;17.90;99.90;;;;;;5030222;28;20124;-82
2021/06/27 06:35:29;;;;;;;15.73;11.57;;;18.10;99.90;;;;;;5021827;28;20049;-92
2021/06/27 06:37:56;;;;;;;15.82;11.52;;;18.20;99.90;;;;;;5050172;28;20050;-82
2021/06/27 06:40:23;;;;;;;19.83;11.50;;;18.20;99.90;;;;;;5033561;28;20048;-81
2021/06/27 06:42:49;;;;;;;16.08;12.25;;;18.40;99.90;;;;;;5050280;28;20042;-78
2021/06/27 06:45:16;;;;;;;16.38;11.45;;;18.50;99.90;;;;;;5049319;28;20044;-79
2021/06/27 06:47:43;;;;;;;16.80;12.52;;;18.60;99.90;;;;;;5040888;28;20504;-79
2021/06/27 06:50:10;;;;;;;15.70;11.35;;;18.70;99.90;;;;;;5038304;28;20060;-80
2021/06/27 06:52:37;;;;;;;14.23;11.13;;;18.80;99.90;;;;;;5049153;28;20037;-79
2021/06/27 06:55:04;;;;;;;17.35;12.13;;;18.80;99.90;;;;;;5030328;28;20108;-78
2021/06/27 06:57:31;;;;;;;16.77;11.65;;;18.90;99.90;;;;;;5032830;28;20154;-79
2021/06/27 06:59:58;;;;;;;18.40;11.43;;;19.00;99.90;;;;;;5030293;28;20038;-81
2021/06/27 07:02:24;;;;;;;16.08;11.00;;;19.10;99.90;;;;;;5029597;28;20068;-78
2021/06/27 07:04:51;;;;;;;14.05;10.40;;;19.30;99.90;;;;;;5046210;28;20069;-79
2021/06/27 07:07:18;;;;;;;16.70;10.23;;;19.30;99.90;;;;;;5029618;28;20398;-81
2021/06/27 07:09:45;;;;;;;14.52;10.70;;;19.50;99.90;;;;;;5046671;28;20038;-83
2021/06/27 07:12:12;;;;;;;15.73;11.18;;;19.60;99.90;;;;;;5030122;28;20038;-82
2021/06/27 07:14:39;;;;;;;14.85;10.50;;;19.60;99.90;;;;;;5044310;28;20109;-85
2021/06/27 07:17:06;;;;;;;13.38;10.20;;;19.60;99.90;;;;;;5033792;28;20157;-86
2021/06/27 07:19:33;;;;;;;17.23;10.70;;;19.70;99.90;;;;;;5017300;28;20045;-86
2021/06/27 07:22:00;;;;;;;16.98;10.80;;;19.80;99.90;;;;;;5031398;28;20038;-87
2021/06/27 07:24:27;;;;;;;15.65;11.07;;;19.90;99.90;;;;;;5002570;28;20084;-90
2021/06/27 07:26:53;;;;;;;15.02;10.50;;;19.90;99.90;;;;;;5014381;28;20045;-88
2021/06/27 07:29:20;;;;;;;14.63;10.90;;;20.00;99.90;;;;;;5013841;28;20034;-88
2021/06/27 07:31:47;;;;;;;18.30;11.32;;;20.10;99.90;;;;;;5016013;28;20034;-88
2021/06/27 07:34:14;;;;;;;13.73;10.73;;;20.10;99.90;;;;;;5017334;28;20049;-90
2021/06/27 07:36:41;;;;;;;16.08;11.73;;;20.20;99.90;;;;;;5031479;28;20054;-89
2021/06/27 07:39:08;;;;;;;14.90;10.63;;;20.20;99.90;;;;;;4999157;28;20494;-87
2021/06/27 07:41:34;;;;;;;14.88;11.32;;;20.20;99.90;;;;;;5032124;28;20038;-89
2021/06/27 07:44:01;;;;;;;15.60;11.13;;;20.30;99.90;;;;;;4983357;28;20044;-91
2021/06/27 07:46:28;;;;;;;16.52;11.13;;;20.40;99.90;;;;;;5001243;28;20049;-90
2021/06/27 07:48:55;;;;;;;16.02;11.50;;;20.40;99.90;;;;;;5018526;28;20498;-89
2021/06/27 07:51:22;;;;;;;14.30;10.75;;;20.50;99.90;;;;;;5028696;28;20439;-91
2021/06/27 07:53:49;;;;;;;14.30;10.68;;;20.70;99.90;;;;;;5016375;28;20062;-92
2021/06/27 07:56:15;;;;;;;15.82;10.90;;;20.80;99.90;;;;;;5019577;28;20050;-89
2021/06/27 07:58:42;;;;;;;15.45;11.20;;;21.00;99.90;;;;;;5003355;28;20041;-93
2021/06/27 08:01:09;;;;;;;14.00;10.50;;;21.10;99.90;;;;;;5019273;28;20045;-93
2021/06/27 08:03:36;;;;;;;17.65;11.20;;;21.20;99.90;;;;;;5035215;28;20033;-92
2021/06/27 08:06:03;;;;;;;14.23;10.43;;;21.40;99.90;;;;;;5035389;28;20050;-91
2021/06/27 08:08:31;;;;;;;17.55;10.20;;;21.50;99.90;;;;;;5033795;28;20454;-90
2021/06/27 08:10:57;;;;;;;13.07;10.45;;;21.60;99.90;;;;;;5035115;28;20066;-93
2021/06/27 08:13:24;;;;;;;14.13;11.18;;;21.60;99.90;;;;;;5020242;28;20038;-91
2021/06/27 08:15:51;;;;;;;15.02;10.88;;;21.60;99.90;;;;;;5019462;28;20133;-90
2021/06/27 08:18:18;;;;;;;13.23;10.13;;;21.60;99.90;;;;;;5032010;28;20475;-92
2021/06/27 08:20:45;;;;;;;16.25;10.65;;;21.80;99.90;;;;;;4998772;28;20038;-91
2021/06/27 08:23:13;;;;;;;13.95;9.85;;;21.90;99.90;;;;;;4996405;28;20109;-92
2021/06/27 08:25:40;;;;;;;13.77;10.68;;;22.00;99.90;;;;;;5033385;28;20046;-90
2021/06/27 08:28:07;;;;;;;14.55;10.35;;;21.90;99.90;;;;;;5032785;28;20110;-91
2021/06/27 08:30:34;;;;;;;13.15;10.63;;;21.70;99.90;;;;;;5020164;28;20035;-92
2021/06/27 08:33:00;;;;;;;14.05;9.85;;;21.80;99.90;;;;;;5017226;28;20038;-90
2021/06/27 08:35:29;;;;;;;13.15;10.18;;;21.90;99.90;;;;;;5020215;28;20078;-93
2021/06/27 08:37:57;;;;;;;16.42;10.93;;;22.00;99.90;;;;;;5029125;28;20073;-90
2021/06/27 08:40:24;;;;;;;15.60;11.20;;;22.10;99.90;;;;;;5019163;28;20553;-92
2021/06/27 08:42:52;;;;;;;13.95;10.52;;;22.10;99.90;;;;;;5034585;28;20041;-93
2021/06/27 08:45:20;;;;;;;15.40;10.65;;;22.20;99.90;;;;;;5035531;28;20492;-89
2021/06/27 08:47:52;;;;;;;13.18;10.52;;;22.10;99.90;;;;;;5021002;28;20363;-92
2021/06/27 08:50:20;;;;;;;13.88;11.88;;;22.10;99.90;;;;;;5033455;28;20041;-91
2021/06/27 08:52:47;;;;;;;13.75;11.35;;;22.10;99.90;;;;;;5018400;28;20478;-93
2021/06/27 08:55:15;;;;;;;15.50;11.65;;;22.00;99.90;;;;;;5020301;28;20045;-94
2021/06/27 08:57:43;;;;;;;17.05;10.88;;;22.00;99.90;;;;;;5019650;28;20045;-92
2021/06/27 09:00:12;;;;;;;15.30;11.18;;;22.10;99.90;;;;;;5052324;28;20116;-93
2021/06/27 09:02:39;;;;;;;14.25;10.80;;;22.30;99.90;;;;;;5017860;28;20371;-93
2021/06/27 09:05:09;;;;;;;15.43;11.52;;;22.40;99.90;;;;;;5020553;28;20056;-95
2021/06/27 09:07:38;;;;;;;12.00;9.82;;;22.60;99.90;;;;;;5018461;28;20041;-93
2021/06/27 09:10:16;;;;;;;16.00;11.73;;;22.70;99.90;;;;;;5036601;28;20466;-90
2021/06/27 09:13:01;;;;;;;13.65;10.55;;;22.80;99.90;;;;;;5034110;28;20042;-94
2021/06/27 09:15:45;;;;;;;12.73;10.40;;;23.00;99.90;;;;;;5033999;28;20462;-88
2021/06/27 09:18:14;;;;;;;14.13;11.02;;;23.00;99.90;;;;;;5020278;28;20025;-93
2021/06/27 09:20:44;;;;;;;14.50;11.02;;;23.10;99.90;;;;;;5030406;28;20039;-94
2021/06/27 09:23:16;;;;;;;10.95;9.10;;;23.10;99.90;;;;;;5035502;28;20466;-91
2021/06/27 09:25:44;;;;;;;14.98;10.88;;;23.20;99.90;;;;;;5035125;28;20049;-92
2021/06/27 09:28:18;;;;;;;14.90;11.30;;;23.20;99.90;;;;;;5033765;28;20041;-91
2021/06/27 09:30:52;;;;;;;13.50;9.70;;;23.10;99.90;;;;;;5015133;28;20128;-91
2021/06/27 09:33:22;;;;;;;12.35;9.13;;;23.10;99.90;;;;;;5017589;28;20044;-91
2021/06/27 09:36:00;;;;;;;12.05;9.80;;;23.10;99.90;;;;;;5044423;28;20031;-91
2021/06/27 09:38:32;;;;;;;13.77;9.95;;;23.30;99.90;;;;;;5037026;28;20057;-90
2021/06/27 09:41:12;;;;;;;14.98;10.10;;;23.30;99.90;;;;;;5067064;28;20113;-87
2021/06/27 09:43:40;;;;;;;12.38;10.02;;;23.30;99.90;;;;;;5052599;28;20042;-89
2021/06/27 09:46:12;;;;;;;11.80;9.23;;;23.30;99.90;;;;;;5021294;28;20037;-90
2021/06/27 09:48:50;;;;;;;12.30;10.23;;;23.40;99.90;;;;;;5052986;28;20042;-90
2021/06/27 09:51:17;;;;;;;12.60;9.05;;;23.50;99.90;;;;;;5065662;28;20040;-91
2021/06/27 09:53:46;;;;;;;11.43;9.32;;;23.40;99.90;;;;;;5053604;28;20056;-91
2021/06/27 09:56:15;;;;;;;12.68;9.68;;;23.40;99.90;;;;;;5052636;28;20049;-92
2021/06/27 09:59:01;;;;;;;11.07;9.20;;;23.30;99.90;;;;;;5054710;28;20033;-92
2021/06/27 10:01:30;;;;;;;11.45;8.88;;;23.40;99.90;;;;;;5036449;28;20045;-91
2021/06/27 10:03:58;;;;;;;10.55;8.48;;;23.40;99.90;;;;;;5051965;28;20079;-90
2021/06/27 10:06:34;;;;;;;12.30;8.15;;;23.40;99.90;;;;;;5051677;28;20538;-91
2021/06/27 10:09:17;;;;;;;10.80;8.68;;;23.50;99.90;;;;;;5052196;28;20041;-91
2021/06/27 10:11:54;;;;;;;11.75;8.90;;;23.50;99.90;;;;;;5067958;28;20041;-92
2021/06/27 10:14:21;;;;;;;11.55;8.50;;;23.60;99.90;;;;;;5056030;28;20101;-93
2021/06/27 10:16:48;;;;;;;9.95;8.02;;;23.70;99.90;;;;;;5068990;28;20042;-94
2021/06/27 10:19:15;;;;;;;11.18;8.98;;;23.80;99.90;;;;;;5015916;28;20533;-88
2021/06/27 10:21:44;;;;;;;14.10;8.70;;;23.80;99.90;;;;;;5024189;28;20096;-89
2021/06/27 10:24:11;;;;;;;8.73;7.20;;;23.80;99.90;;;;;;5020743;28;20103;-89
2021/06/27 10:26:39;;;;;;;10.38;7.82;;;24.00;99.90;;;;;;5051175;28;20053;-87
2021/06/27 10:29:09;;;;;;;11.68;8.45;;;24.00;99.90;;;;;;5051768;28;20033;-91
2021/06/27 10:31:36;;;;;;;11.18;8.32;;;24.10;99.90;;;;;;5068456;28;20439;-89
2021/06/27 10:34:03;;;;;;;14.43;9.95;;;24.00;99.90;;;;;;5020890;28;20045;-89
2021/06/27 10:36:36;;;;;;;10.55;8.85;;;23.70;99.90;;;;;;5058540;28;20049;-95
2021/06/27 10:39:14;;;;;;;11.35;8.60;;;23.70;99.90;;;;;;5029338;28;20190;-94
2021/06/27 10:41:59;;;;;;;10.02;7.57;;;23.60;99.90;;;;;;5052341;28;20533;-93
2021/06/27 10:44:37;;;;;;;11.43;8.07;;;23.60;99.90;;;;;;5054330;28;20053;-94
2021/06/27 10:47:08;;;;;;;10.68;8.35;;;23.60;99.90;;;;;;5069463;28;20040;-92
2021/06/27 10:49:34;;;;;;;10.27;8.60;;;23.50;99.90;;;;;;5035843;28;20029;-90
2021/06/27 10:52:05;;;;;;;9.93;8.65;;;23.50;99.90;;;;;;5051389;28;20083;-88
2021/06/27 10:54:42;;;;;;;13.25;9.10;;;23.60;99.90;;;;;;5035871;28;20046;-93
2021/06/27 10:57:10;;;;;;;9.80;7.57;;;23.70;99.90;;;;;;5036222;28;20433;-91
2021/06/27 10:59:40;;;;;;;11.00;7.88;;;23.80;99.90;;;;;;5034322;28;20042;-90
2021/06/27 11:02:42;;;;;;;9.85;7.88;;;23.80;99.90;;;;;;5035374;28;20132;-86
2021/06/27 11:05:33;;;;;;;10.38;8.00;;;23.90;99.90;;;;;;5049523;28;20057;-90
2021/06/27 11:08:04;;;;;;;12.15;8.05;;;24.00;99.90;;;;;;5071436;28;20044;-88
2021/06/27 11:10:33;;;;;;;12.23;7.93;;;24.10;99.90;;;;;;5055025;28;20153;-88
2021/06/27 11:13:01;;;;;;;10.60;8.02;;;24.10;99.90;;;;;;5071659;28;20045;-89
2021/06/27 11:15:27;;;;;;;11.27;8.27;;;24.00;99.90;;;;;;5055297;28;20125;-88
2021/06/27 11:17:56;;;;;;;8.20;7.30;;;24.10;99.90;;;;;;5055016;28;20040;-90
2021/06/27 11:20:25;;;;;;;9.38;7.45;;;24.20;99.90;;;;;;5038601;28;20041;-90
2021/06/27 11:22:55;;;;;;;9.55;7.60;;;24.20;99.90;;;;;;5019046;28;20088;-89
2021/06/27 11:25:42;;;;;;;9.32;7.00;;;24.20;99.90;;;;;;5035118;28;20509;-89
2021/06/27 11:28:18;;;;;;;10.48;6.68;;;24.20;99.90;;;;;;5035287;28;20061;-89
2021/06/27 11:30:51;;;;;;;8.80;7.13;;;24.20;99.90;;;;;;5034745;28;20061;-90
2021/06/27 11:33:23;;;;;;;7.95;6.70;;;24.20;99.90;;;;;;5035867;28;20398;-89
2021/06/27 11:35:57;;;;;;;11.73;6.50;;;24.40;99.90;;;;;;5019021;28;20092;-87
2021/06/27 11:38:43;;;;;;;10.18;6.15;;;24.60;99.90;;;;;;5034453;28;20438;-89
2021/06/27 11:41:37;;;;;;;9.85;7.45;;;24.90;99.90;;;;;;5018741;28;20093;-90
2021/06/27 11:44:11;;;;;;;12.77;6.97;;;25.00;99.90;;;;;;5044912;28;20072;-88
2021/06/27 11:46:43;;;;;;;9.88;6.95;;;25.10;99.90;;;;;;5053801;28;20037;-87
2021/06/27 11:49:13;;;;;;;7.53;5.68;;;25.10;99.90;;;;;;5037776;28;20037;-88
2021/06/27 11:51:43;;;;;;;11.88;7.00;;;25.40;99.90;;;;;;5053674;28;20037;-86
2021/06/27 11:54:12;;;;;;;9.57;7.00;;;25.60;99.90;;;;;;5052945;28;20033;-88
2021/06/27 11:57:05;;;;;;;7.45;6.30;;;25.60;99.90;;;;;;5053943;28;20029;-88
2021/06/27 11:59:37;;;;;;;9.45;6.72;;;25.60;99.90;;;;;;5037632;28;20418;-89
2021/06/27 12:02:29;;;;;;;10.32;7.80;;;25.60;99.90;;;;;;5059020;28;20154;-90
2021/06/27 12:04:58;;;;;;;8.82;7.40;;;25.40;99.90;;;;;;5050668;28;20473;-90
2021/06/27 12:07:39;;;;;;;8.50;6.57;;;25.30;99.90;;;;;;5034463;28;20108;-89
2021/06/27 12:10:18;;;;;;;9.38;7.18;;;25.30;99.90;;;;;;5050996;28;20103;-91
2021/06/27 12:12:58;;;;;;;7.80;6.70;;;25.40;99.90;;;;;;5057249;28;20034;-93
2021/06/27 12:15:42;;;;;;;10.18;7.28;;;25.20;99.90;;;;;;4999256;28;20066;-90
2021/06/27 12:18:10;;;;;;;10.20;6.90;;;25.00;99.90;;;;;;5013902;28;20394;-95
2021/06/27 12:20:46;;;;;;;9.55;6.53;;;25.10;99.90;;;;;;4999329;28;20046;-94
2021/06/27 12:23:29;;;;;;;8.25;6.35;;;25.20;99.90;;;;;;4998644;28;20054;-94
2021/06/27 12:26:00;;;;;;;8.23;5.60;;;25.30;99.90;;;;;;5015190;28;20039;-95
2021/06/27 12:28:42;;;;;;;9.85;6.97;;;25.40;99.90;;;;;;5015487;28;20471;-94
2021/06/27 12:31:32;;;;;;;10.88;6.00;;;25.50;99.90;;;;;;5018594;28;20046;-94
2021/06/27 12:34:01;;;;;;;8.48;6.40;;;25.60;99.90;;;;;;5003082;28;20061;-95
2021/06/27 12:36:39;;;;;;;8.07;6.53;;;25.60;99.90;;;;;;5004916;28;20066;-93
2021/06/27 12:39:16;;;;;;;7.00;6.22;;;25.70;99.90;;;;;;5015175;28;20586;-92
2021/06/27 12:41:43;;;;;;;8.98;5.97;;;25.60;99.90;;;;;;5002302;28;20046;-94
2021/06/27 12:44:14;;;;;;;9.68;5.85;;;25.50;99.90;;;;;;5003643;28;20458;-96